sensor_id;sensor_type;location;lat;lon;timestamp;P1;durP1;ratioP1;P2;durP2;ratioP2
2055;SDS011;1033;52.560;13.374;2022-09-27T00:01:09;2.00;;;1.70;;
2055;SDS011;1033;52.560;13.374;2022-09-27T00:03:39;2.60;;;1.70;;
2055;SDS011;1033;52.560;13.374;2022-09-27T00:06:10;3.33;;;2.20;;
2055;SDS011;1033;52.560;13.374;2022-09-27T00:08:41;3.23;;;2.20;;
2055;SDS011;1033;52.560;13.374;2022-09-27T00:11:14;3.50;;;2.53;;
2055;SDS011;1033;52.560;13.374;2022-09-27T00:13:47;2.40;;;1.80;;
2055;SDS011;1033;52.560;13.374;2022-09-27T00:16:16;2.17;;;1.90;;
2055;SDS011;1033;52.560;13.374;2022-09-27T00:18:45;3.13;;;2.07;;
2055;SDS011;1033;52.560;13.374;2022-09-27T00:21:14;3.17;;;2.00;;
2055;SDS011;1033;52.560;13.374;2022-09-27T00:23:43;2.83;;;2.10;;
2055;SDS011;1033;52.560;13.374;2022-09-27T00:26:13;2.20;;;2.00;;
2055;SDS011;1033;52.560;13.374;2022-09-27T00:28:42;2.83;;;1.90;;
2055;SDS011;1033;52.560;13.374;2022-09-27T00:31:16;2.83;;;2.30;;
2055;SDS011;1033;52.560;13.374;2022-09-27T00:33:48;3.70;;;2.87;;
2055;SDS011;1033;52.560;13.374;2022-09-27T00:36:19;3.60;;;2.73;;
2055;SDS011;1033;52.560;13.374;2022-09-27T00:38:49;3.07;;;2.13;;
2055;SDS011;1033;52.560;13.374;2022-09-27T00:41:20;5.60;;;3.30;;
2055;SDS011;1033;52.560;13.374;2022-09-27T00:43:52;1.70;;;1.47;;
2055;SDS011;1033;52.560;13.374;2022-09-27T00:46:24;1.90;;;1.70;;
2055;SDS011;1033;52.560;13.374;2022-09-27T00:48:58;3.50;;;2.40;;
2055;SDS011;1033;52.560;13.374;2022-09-27T00:51:32;2.30;;;2.03;;
2055;SDS011;1033;52.560;13.374;2022-09-27T00:54:04;2.43;;;1.83;;
2055;SDS011;1033;52.560;13.374;2022-09-27T00:56:36;4.17;;;2.27;;
2055;SDS011;1033;52.560;13.374;2022-09-27T00:59:06;3.03;;;2.73;;
2055;SDS011;1033;52.560;13.374;2022-09-27T01:01:39;3.80;;;3.40;;
2055;SDS011;1033;52.560;13.374;2022-09-27T01:04:08;3.30;;;2.17;;
2055;SDS011;1033;52.560;13.374;2022-09-27T01:06:39;4.20;;;2.27;;
2055;SDS011;1033;52.560;13.374;2022-09-27T01:09:08;4.37;;;2.50;;
2055;SDS011;1033;52.560;13.374;2022-09-27T01:11:41;2.53;;;2.00;;
2055;SDS011;1033;52.560;13.374;2022-09-27T01:17:12;4.40;;;2.00;;
2055;SDS011;1033;52.560;13.374;2022-09-27T01:20:10;3.30;;;1.80;;
2055;SDS011;1033;52.560;13.374;2022-09-27T01:23:13;2.80;;;2.00;;
2055;SDS011;1033;52.560;13.374;2022-09-27T01:26:01;2.03;;;1.50;;
2055;SDS011;1033;52.560;13.374;2022-09-27T01:28:46;2.30;;;1.80;;
2055;SDS011;1033;52.560;13.374;2022-09-27T01:31:27;3.33;;;1.67;;
2055;SDS011;1033;52.560;13.374;2022-09-27T01:34:02;3.03;;;2.33;;
2055;SDS011;1033;52.560;13.374;2022-09-27T01:36:37;3.37;;;1.90;;
2055;SDS011;1033;52.560;13.374;2022-09-27T01:39:16;4.50;;;2.60;;
2055;SDS011;1033;52.560;13.374;2022-09-27T01:42:13;2.30;;;1.60;;
2055;SDS011;1033;52.560;13.374;2022-09-27T01:44:54;8.50;;;2.87;;
2055;SDS011;1033;52.560;13.374;2022-09-27T01:47:34;8.27;;;2.00;;
2055;SDS011;1033;52.560;13.374;2022-09-27T01:50:28;2.23;;;2.00;;
2055;SDS011;1033;52.560;13.374;2022-09-27T01:53:02;2.40;;;1.70;;
2055;SDS011;1033;52.560;13.374;2022-09-27T01:55:47;3.67;;;2.30;;
2055;SDS011;1033;52.560;13.374;2022-09-27T01:58:47;3.73;;;1.60;;
2055;SDS011;1033;52.560;13.374;2022-09-27T02:01:20;3.23;;;2.10;;
2055;SDS011;1033;52.560;13.374;2022-09-27T02:03:53;2.37;;;1.70;;
2055;SDS011;1033;52.560;13.374;2022-09-27T02:06:48;2.57;;;1.90;;
2055;SDS011;1033;52.560;13.374;2022-09-27T02:09:24;2.30;;;2.00;;
2055;SDS011;1033;52.560;13.374;2022-09-27T02:12:10;3.57;;;2.10;;
2055;SDS011;1033;52.560;13.374;2022-09-27T02:14:43;7.00;;;2.30;;
2055;SDS011;1033;52.560;13.374;2022-09-27T02:17:21;5.50;;;2.47;;
2055;SDS011;1033;52.560;13.374;2022-09-27T02:19:55;2.47;;;1.90;;
2055;SDS011;1033;52.560;13.374;2022-09-27T02:22:43;3.47;;;2.23;;
2055;SDS011;1033;52.560;13.374;2022-09-27T02:25:17;2.37;;;1.60;;
2055;SDS011;1033;52.560;13.374;2022-09-27T02:27:56;2.33;;;2.13;;
2055;SDS011;1033;52.560;13.374;2022-09-27T02:30:32;2.10;;;1.90;;
2055;SDS011;1033;52.560;13.374;2022-09-27T02:33:14;5.43;;;2.77;;
2055;SDS011;1033;52.560;13.374;2022-09-27T02:35:44;2.40;;;2.00;;
2055;SDS011;1033;52.560;13.374;2022-09-27T02:38:13;2.17;;;1.97;;
2055;SDS011;1033;52.560;13.374;2022-09-27T02:40:43;3.70;;;1.73;;
2055;SDS011;1033;52.560;13.374;2022-09-27T02:43:13;4.20;;;2.50;;
2055;SDS011;1033;52.560;13.374;2022-09-27T02:45:49;2.10;;;1.43;;
2055;SDS011;1033;52.560;13.374;2022-09-27T02:48:29;2.27;;;1.67;;
2055;SDS011;1033;52.560;13.374;2022-09-27T02:51:12;5.53;;;2.27;;
2055;SDS011;1033;52.560;13.374;2022-09-27T02:53:54;2.27;;;2.07;;
2055;SDS011;1033;52.560;13.374;2022-09-27T02:57:00;2.90;;;1.43;;
2055;SDS011;1033;52.560;13.374;2022-09-27T03:00:07;1.90;;;1.47;;
2055;SDS011;1033;52.560;13.374;2022-09-27T03:02:59;4.13;;;2.50;;
2055;SDS011;1033;52.560;13.374;2022-09-27T03:05:52;3.10;;;1.50;;
2055;SDS011;1033;52.560;13.374;2022-09-27T03:08:29;5.23;;;1.50;;
2055;SDS011;1033;52.560;13.374;2022-09-27T03:10:58;2.90;;;1.60;;
2055;SDS011;1033;52.560;13.374;2022-09-27T03:13:27;2.30;;;1.63;;
2055;SDS011;1033;52.560;13.374;2022-09-27T03:15:57;4.50;;;2.47;;
2055;SDS011;1033;52.560;13.374;2022-09-27T03:18:52;2.70;;;2.10;;
2055;SDS011;1033;52.560;13.374;2022-09-27T03:21:52;1.57;;;1.10;;
2055;SDS011;1033;52.560;13.374;2022-09-27T03:24:23;3.17;;;2.17;;
2055;SDS011;1033;52.560;13.374;2022-09-27T03:26:52;4.47;;;2.70;;
2055;SDS011;1033;52.560;13.374;2022-09-27T03:29:20;4.03;;;2.17;;
2055;SDS011;1033;52.560;13.374;2022-09-27T03:31:56;3.40;;;1.70;;
2055;SDS011;1033;52.560;13.374;2022-09-27T03:34:54;2.77;;;1.83;;
2055;SDS011;1033;52.560;13.374;2022-09-27T03:37:23;3.57;;;2.30;;
2055;SDS011;1033;52.560;13.374;2022-09-27T03:39:56;5.10;;;3.50;;
2055;SDS011;1033;52.560;13.374;2022-09-27T03:42:25;3.07;;;1.67;;
2055;SDS011;1033;52.560;13.374;2022-09-27T03:44:54;3.90;;;2.13;;
2055;SDS011;1033;52.560;13.374;2022-09-27T03:47:22;2.57;;;1.80;;
2055;SDS011;1033;52.560;13.374;2022-09-27T03:49:51;2.27;;;1.87;;
2055;SDS011;1033;52.560;13.374;2022-09-27T03:52:20;4.23;;;2.07;;
2055;SDS011;1033;52.560;13.374;2022-09-27T03:54:49;3.00;;;1.90;;
2055;SDS011;1033;52.560;13.374;2022-09-27T03:57:19;3.30;;;2.30;;
2055;SDS011;1033;52.560;13.374;2022-09-27T03:59:47;3.77;;;2.17;;
2055;SDS011;1033;52.560;13.374;2022-09-27T04:02:42;2.90;;;2.27;;
2055;SDS011;1033;52.560;13.374;2022-09-27T04:05:35;2.43;;;2.20;;
2055;SDS011;1033;52.560;13.374;2022-09-27T04:08:11;4.23;;;2.40;;
2055;SDS011;1033;52.560;13.374;2022-09-27T04:10:40;2.53;;;2.10;;
2055;SDS011;1033;52.560;13.374;2022-09-27T04:13:11;3.37;;;2.57;;
2055;SDS011;1033;52.560;13.374;2022-09-27T04:15:47;2.87;;;2.67;;
2055;SDS011;1033;52.560;13.374;2022-09-27T04:18:36;4.83;;;2.17;;
2055;SDS011;1033;52.560;13.374;2022-09-27T04:21:05;4.30;;;2.77;;
2055;SDS011;1033;52.560;13.374;2022-09-27T04:23:38;3.47;;;2.10;;
2055;SDS011;1033;52.560;13.374;2022-09-27T04:26:06;5.57;;;2.30;;
2055;SDS011;1033;52.560;13.374;2022-09-27T04:28:48;5.27;;;2.50;;
2055;SDS011;1033;52.560;13.374;2022-09-27T04:31:21;2.80;;;2.50;;
2055;SDS011;1033;52.560;13.374;2022-09-27T04:34:10;3.07;;;2.77;;
2055;SDS011;1033;52.560;13.374;2022-09-27T04:36:39;4.03;;;2.10;;
2055;SDS011;1033;52.560;13.374;2022-09-27T04:39:14;3.90;;;2.80;;
2055;SDS011;1033;52.560;13.374;2022-09-27T04:41:44;3.97;;;2.00;;
2055;SDS011;1033;52.560;13.374;2022-09-27T04:44:14;2.83;;;2.53;;
2055;SDS011;1033;52.560;13.374;2022-09-27T04:46:47;3.00;;;2.20;;
2055;SDS011;1033;52.560;13.374;2022-09-27T04:49:16;3.00;;;2.10;;
2055;SDS011;1033;52.560;13.374;2022-09-27T04:51:45;3.03;;;2.40;;
2055;SDS011;1033;52.560;13.374;2022-09-27T04:54:14;2.80;;;2.40;;
2055;SDS011;1033;52.560;13.374;2022-09-27T04:56:52;8.50;;;3.00;;
2055;SDS011;1033;52.560;13.374;2022-09-27T04:59:22;2.63;;;2.40;;
2055;SDS011;1033;52.560;13.374;2022-09-27T05:01:51;5.40;;;2.00;;
2055;SDS011;1033;52.560;13.374;2022-09-27T05:04:46;3.53;;;2.60;;
2055;SDS011;1033;52.560;13.374;2022-09-27T05:07:18;2.80;;;1.83;;
2055;SDS011;1033;52.560;13.374;2022-09-27T05:09:52;2.43;;;2.10;;
2055;SDS011;1033;52.560;13.374;2022-09-27T05:12:22;2.83;;;2.00;;
2055;SDS011;1033;52.560;13.374;2022-09-27T05:14:59;2.60;;;2.40;;
2055;SDS011;1033;52.560;13.374;2022-09-27T05:17:50;2.13;;;1.93;;
2055;SDS011;1033;52.560;13.374;2022-09-27T05:20:42;2.60;;;2.20;;
2055;SDS011;1033;52.560;13.374;2022-09-27T05:23:31;7.93;;;2.60;;
2055;SDS011;1033;52.560;13.374;2022-09-27T05:26:02;4.00;;;2.37;;
2055;SDS011;1033;52.560;13.374;2022-09-27T05:28:32;5.53;;;2.57;;
2055;SDS011;1033;52.560;13.374;2022-09-27T05:31:03;2.10;;;1.90;;
2055;SDS011;1033;52.560;13.374;2022-09-27T05:33:32;3.27;;;2.50;;
2055;SDS011;1033;52.560;13.374;2022-09-27T05:36:24;3.00;;;2.80;;
2055;SDS011;1033;52.560;13.374;2022-09-27T05:38:52;3.50;;;2.73;;
2055;SDS011;1033;52.560;13.374;2022-09-27T05:41:22;3.00;;;2.60;;
2055;SDS011;1033;52.560;13.374;2022-09-27T05:43:52;3.67;;;2.43;;
2055;SDS011;1033;52.560;13.374;2022-09-27T05:46:23;3.83;;;2.83;;
2055;SDS011;1033;52.560;13.374;2022-09-27T05:48:52;6.90;;;2.73;;
2055;SDS011;1033;52.560;13.374;2022-09-27T05:51:20;4.40;;;2.67;;
2055;SDS011;1033;52.560;13.374;2022-09-27T05:53:49;2.40;;;1.90;;
2055;SDS011;1033;52.560;13.374;2022-09-27T05:56:25;5.17;;;2.50;;
2055;SDS011;1033;52.560;13.374;2022-09-27T05:59:13;4.47;;;3.33;;
2055;SDS011;1033;52.560;13.374;2022-09-27T06:02:02;10.23;;;3.00;;
2055;SDS011;1033;52.560;13.374;2022-09-27T06:04:49;2.60;;;2.13;;
2055;SDS011;1033;52.560;13.374;2022-09-27T06:07:36;2.77;;;2.40;;
2055;SDS011;1033;52.560;13.374;2022-09-27T06:10:20;3.23;;;2.07;;
2055;SDS011;1033;52.560;13.374;2022-09-27T06:12:49;3.00;;;2.70;;
2055;SDS011;1033;52.560;13.374;2022-09-27T06:15:39;3.10;;;1.90;;
2055;SDS011;1033;52.560;13.374;2022-09-27T06:18:12;3.10;;;2.53;;
2055;SDS011;1033;52.560;13.374;2022-09-27T06:20:46;3.97;;;2.60;;
2055;SDS011;1033;52.560;13.374;2022-09-27T06:23:16;3.27;;;2.73;;
2055;SDS011;1033;52.560;13.374;2022-09-27T06:25:47;4.93;;;2.80;;
2055;SDS011;1033;52.560;13.374;2022-09-27T06:28:22;4.60;;;2.40;;
2055;SDS011;1033;52.560;13.374;2022-09-27T06:30:55;5.33;;;3.20;;
2055;SDS011;1033;52.560;13.374;2022-09-27T06:33:40;8.47;;;5.80;;
2055;SDS011;1033;52.560;13.374;2022-09-27T06:36:09;17.23;;;13.20;;
2055;SDS011;1033;52.560;13.374;2022-09-27T06:38:39;16.93;;;10.70;;
2055;SDS011;1033;52.560;13.374;2022-09-27T06:41:15;8.63;;;7.73;;
2055;SDS011;1033;52.560;13.374;2022-09-27T06:44:06;4.27;;;3.97;;
2055;SDS011;1033;52.560;13.374;2022-09-27T06:46:54;5.73;;;4.00;;
2055;SDS011;1033;52.560;13.374;2022-09-27T06:49:59;5.63;;;4.40;;
2055;SDS011;1033;52.560;13.374;2022-09-27T06:52:29;6.00;;;4.27;;
2055;SDS011;1033;52.560;13.374;2022-09-27T06:54:58;4.57;;;3.70;;
2055;SDS011;1033;52.560;13.374;2022-09-27T06:57:29;3.87;;;3.17;;
2055;SDS011;1033;52.560;13.374;2022-09-27T07:00:15;3.00;;;2.20;;
2055;SDS011;1033;52.560;13.374;2022-09-27T07:03:02;5.30;;;3.07;;
2055;SDS011;1033;52.560;13.374;2022-09-27T07:05:55;3.13;;;2.17;;
2055;SDS011;1033;52.560;13.374;2022-09-27T07:08:38;2.90;;;2.40;;
2055;SDS011;1033;52.560;13.374;2022-09-27T07:11:06;6.10;;;2.83;;
2055;SDS011;1033;52.560;13.374;2022-09-27T07:13:35;4.37;;;2.77;;
2055;SDS011;1033;52.560;13.374;2022-09-27T07:16:09;3.23;;;2.30;;
2055;SDS011;1033;52.560;13.374;2022-09-27T07:18:40;3.47;;;2.60;;
2055;SDS011;1033;52.560;13.374;2022-09-27T07:21:11;3.80;;;2.90;;
2055;SDS011;1033;52.560;13.374;2022-09-27T07:23:41;3.90;;;2.80;;
2055;SDS011;1033;52.560;13.374;2022-09-27T07:26:12;4.37;;;2.97;;
2055;SDS011;1033;52.560;13.374;2022-09-27T07:28:41;4.53;;;2.30;;
2055;SDS011;1033;52.560;13.374;2022-09-27T07:31:14;3.70;;;3.23;;
2055;SDS011;1033;52.560;13.374;2022-09-27T07:33:44;3.10;;;2.57;;
2055;SDS011;1033;52.560;13.374;2022-09-27T07:36:14;3.87;;;2.53;;
2055;SDS011;1033;52.560;13.374;2022-09-27T07:38:44;2.43;;;1.67;;
2055;SDS011;1033;52.560;13.374;2022-09-27T07:41:17;3.87;;;2.67;;
2055;SDS011;1033;52.560;13.374;2022-09-27T07:43:46;3.60;;;2.93;;
2055;SDS011;1033;52.560;13.374;2022-09-27T07:46:16;3.87;;;3.23;;
2055;SDS011;1033;52.560;13.374;2022-09-27T07:49:04;3.37;;;2.87;;
2055;SDS011;1033;52.560;13.374;2022-09-27T07:51:56;2.90;;;2.30;;
2055;SDS011;1033;52.560;13.374;2022-09-27T07:54:33;5.57;;;2.70;;
2055;SDS011;1033;52.560;13.374;2022-09-27T07:57:13;5.10;;;2.70;;
2055;SDS011;1033;52.560;13.374;2022-09-27T07:59:48;2.43;;;1.93;;
2055;SDS011;1033;52.560;13.374;2022-09-27T08:02:19;2.90;;;2.40;;
2055;SDS011;1033;52.560;13.374;2022-09-27T08:04:49;2.50;;;1.90;;
2055;SDS011;1033;52.560;13.374;2022-09-27T08:07:20;5.57;;;2.70;;
2055;SDS011;1033;52.560;13.374;2022-09-27T08:09:51;3.50;;;2.30;;
2055;SDS011;1033;52.560;13.374;2022-09-27T08:12:20;9.83;;;2.97;;
2055;SDS011;1033;52.560;13.374;2022-09-27T08:14:49;2.83;;;2.60;;
2055;SDS011;1033;52.560;13.374;2022-09-27T08:17:19;3.40;;;2.60;;
2055;SDS011;1033;52.560;13.374;2022-09-27T08:20:06;3.70;;;2.23;;
2055;SDS011;1033;52.560;13.374;2022-09-27T08:23:02;2.60;;;2.40;;
2055;SDS011;1033;52.560;13.374;2022-09-27T08:25:37;3.80;;;2.93;;
2055;SDS011;1033;52.560;13.374;2022-09-27T08:28:26;11.20;;;5.00;;
2055;SDS011;1033;52.560;13.374;2022-09-27T08:31:01;2.40;;;2.13;;
2055;SDS011;1033;52.560;13.374;2022-09-27T08:33:30;3.87;;;3.00;;
2055;SDS011;1033;52.560;13.374;2022-09-27T08:36:09;3.30;;;1.90;;
2055;SDS011;1033;52.560;13.374;2022-09-27T08:38:40;2.73;;;2.33;;
2055;SDS011;1033;52.560;13.374;2022-09-27T08:41:11;8.20;;;2.30;;
2055;SDS011;1033;52.560;13.374;2022-09-27T08:43:45;2.57;;;2.37;;
2055;SDS011;1033;52.560;13.374;2022-09-27T08:46:26;3.17;;;2.80;;
2055;SDS011;1033;52.560;13.374;2022-09-27T08:49:02;5.57;;;3.30;;
2055;SDS011;1033;52.560;13.374;2022-09-27T08:51:36;4.60;;;2.50;;
2055;SDS011;1033;52.560;13.374;2022-09-27T08:54:10;3.17;;;2.87;;
2055;SDS011;1033;52.560;13.374;2022-09-27T08:56:45;5.10;;;2.13;;
2055;SDS011;1033;52.560;13.374;2022-09-27T08:59:15;2.73;;;2.53;;
2055;SDS011;1033;52.560;13.374;2022-09-27T09:01:47;5.03;;;2.63;;
2055;SDS011;1033;52.560;13.374;2022-09-27T09:04:30;2.33;;;2.13;;
2055;SDS011;1033;52.560;13.374;2022-09-27T09:07:05;4.73;;;2.83;;
2055;SDS011;1033;52.560;13.374;2022-09-27T09:09:43;4.17;;;2.90;;
2055;SDS011;1033;52.560;13.374;2022-09-27T09:12:23;5.70;;;2.50;;
2055;SDS011;1033;52.560;13.374;2022-09-27T09:15:19;5.67;;;2.47;;
2055;SDS011;1033;52.560;13.374;2022-09-27T09:18:00;2.53;;;2.13;;
2055;SDS011;1033;52.560;13.374;2022-09-27T09:20:53;2.60;;;2.40;;
2055;SDS011;1033;52.560;13.374;2022-09-27T09:23:35;4.00;;;3.10;;
2055;SDS011;1033;52.560;13.374;2022-09-27T09:26:27;3.00;;;2.50;;
2055;SDS011;1033;52.560;13.374;2022-09-27T09:29:04;2.77;;;2.50;;
2055;SDS011;1033;52.560;13.374;2022-09-27T09:31:45;3.00;;;2.53;;
2055;SDS011;1033;52.560;13.374;2022-09-27T09:34:21;2.43;;;2.23;;
2055;SDS011;1033;52.560;13.374;2022-09-27T09:36:55;4.33;;;2.80;;
2055;SDS011;1033;52.560;13.374;2022-09-27T09:39:27;5.33;;;3.00;;
2055;SDS011;1033;52.560;13.374;2022-09-27T09:42:06;3.10;;;2.80;;
2055;SDS011;1033;52.560;13.374;2022-09-27T09:44:46;4.93;;;2.90;;
2055;SDS011;1033;52.560;13.374;2022-09-27T09:47:23;5.03;;;2.60;;
2055;SDS011;1033;52.560;13.374;2022-09-27T09:49:59;2.57;;;2.37;;
2055;SDS011;1033;52.560;13.374;2022-09-27T09:52:35;4.70;;;3.97;;
2055;SDS011;1033;52.560;13.374;2022-09-27T09:55:14;4.67;;;3.40;;
2055;SDS011;1033;52.560;13.374;2022-09-27T09:57:55;5.50;;;3.40;;
2055;SDS011;1033;52.560;13.374;2022-09-27T10:00:39;6.53;;;3.37;;
2055;SDS011;1033;52.560;13.374;2022-09-27T10:03:10;2.90;;;2.63;;
2055;SDS011;1033;52.560;13.374;2022-09-27T10:05:38;3.30;;;3.00;;
2055;SDS011;1033;52.560;13.374;2022-09-27T10:08:12;3.23;;;2.90;;
2055;SDS011;1033;52.560;13.374;2022-09-27T10:10:49;4.47;;;3.13;;
2055;SDS011;1033;52.560;13.374;2022-09-27T10:13:48;2.87;;;2.60;;
2055;SDS011;1033;52.560;13.374;2022-09-27T10:16:18;3.53;;;3.23;;
2055;SDS011;1033;52.560;13.374;2022-09-27T10:18:48;4.00;;;2.97;;
2055;SDS011;1033;52.560;13.374;2022-09-27T10:21:24;4.73;;;3.53;;
2055;SDS011;1033;52.560;13.374;2022-09-27T10:24:08;3.30;;;3.00;;
2055;SDS011;1033;52.560;13.374;2022-09-27T10:27:02;2.47;;;2.27;;
2055;SDS011;1033;52.560;13.374;2022-09-27T10:29:35;3.57;;;2.90;;
2055;SDS011;1033;52.560;13.374;2022-09-27T10:32:18;3.93;;;3.63;;
2055;SDS011;1033;52.560;13.374;2022-09-27T10:35:17;5.90;;;3.03;;
2055;SDS011;1033;52.560;13.374;2022-09-27T10:37:50;3.13;;;2.70;;
2055;SDS011;1033;52.560;13.374;2022-09-27T10:40:25;3.63;;;3.20;;
2055;SDS011;1033;52.560;13.374;2022-09-27T10:42:58;4.37;;;3.53;;
2055;SDS011;1033;52.560;13.374;2022-09-27T10:45:45;3.83;;;3.37;;
2055;SDS011;1033;52.560;13.374;2022-09-27T10:48:18;3.63;;;3.33;;
2055;SDS011;1033;52.560;13.374;2022-09-27T10:50:55;5.20;;;3.53;;
2055;SDS011;1033;52.560;13.374;2022-09-27T10:53:45;3.50;;;3.20;;
2055;SDS011;1033;52.560;13.374;2022-09-27T10:56:25;3.20;;;2.90;;
2055;SDS011;1033;52.560;13.374;2022-09-27T10:58:56;7.37;;;4.20;;
2055;SDS011;1033;52.560;13.374;2022-09-27T11:01:36;6.10;;;3.80;;
2055;SDS011;1033;52.560;13.374;2022-09-27T11:04:18;4.20;;;2.93;;
2055;SDS011;1033;52.560;13.374;2022-09-27T11:06:50;4.00;;;3.23;;
2055;SDS011;1033;52.560;13.374;2022-09-27T11:09:20;5.10;;;2.40;;
2055;SDS011;1033;52.560;13.374;2022-09-27T11:12:07;4.83;;;3.57;;
2055;SDS011;1033;52.560;13.374;2022-09-27T11:14:39;6.80;;;3.57;;
2055;SDS011;1033;52.560;13.374;2022-09-27T11:17:12;3.43;;;2.83;;
2055;SDS011;1033;52.560;13.374;2022-09-27T11:19:57;3.80;;;2.93;;
2055;SDS011;1033;52.560;13.374;2022-09-27T11:22:54;4.60;;;3.10;;
2055;SDS011;1033;52.560;13.374;2022-09-27T11:25:45;4.27;;;3.63;;
2055;SDS011;1033;52.560;13.374;2022-09-27T11:28:28;4.43;;;3.53;;
2055;SDS011;1033;52.560;13.374;2022-09-27T11:31:11;3.33;;;3.03;;
2055;SDS011;1033;52.560;13.374;2022-09-27T11:34:06;5.10;;;3.30;;
2055;SDS011;1033;52.560;13.374;2022-09-27T11:36:55;3.77;;;2.77;;
2055;SDS011;1033;52.560;13.374;2022-09-27T11:39:38;7.60;;;3.73;;
2055;SDS011;1033;52.560;13.374;2022-09-27T11:42:32;4.17;;;3.23;;
2055;SDS011;1033;52.560;13.374;2022-09-27T11:45:22;4.10;;;3.27;;
2055;SDS011;1033;52.560;13.374;2022-09-27T11:48:26;9.60;;;4.30;;
2055;SDS011;1033;52.560;13.374;2022-09-27T11:51:17;5.80;;;5.20;;
2055;SDS011;1033;52.560;13.374;2022-09-27T11:56:54;1.13;;;0.87;;
2055;SDS011;1033;52.560;13.374;2022-09-27T12:02:49;2.50;;;0.90;;
2055;SDS011;1033;52.560;13.374;2022-09-27T12:05:28;1.53;;;0.70;;
2055;SDS011;1033;52.560;13.374;2022-09-27T12:08:15;1.37;;;0.97;;
2055;SDS011;1033;52.560;13.374;2022-09-27T12:10:56;2.03;;;0.90;;
2055;SDS011;1033;52.560;13.374;2022-09-27T12:13:33;1.40;;;1.00;;
2055;SDS011;1033;52.560;13.374;2022-09-27T12:16:05;3.50;;;1.90;;
2055;SDS011;1033;52.560;13.374;2022-09-27T12:18:37;1.70;;;0.93;;
2055;SDS011;1033;52.560;13.374;2022-09-27T12:21:32;10.17;;;5.33;;
2055;SDS011;1033;52.560;13.374;2022-09-27T12:24:03;1.83;;;1.30;;
2055;SDS011;1033;52.560;13.374;2022-09-27T12:26:36;1.37;;;1.00;;
2055;SDS011;1033;52.560;13.374;2022-09-27T12:29:10;1.93;;;1.40;;
2055;SDS011;1033;52.560;13.374;2022-09-27T12:31:43;1.73;;;1.10;;
2055;SDS011;1033;52.560;13.374;2022-09-27T12:34:18;2.33;;;1.77;;
2055;SDS011;1033;52.560;13.374;2022-09-27T12:36:52;3.13;;;2.53;;
2055;SDS011;1033;52.560;13.374;2022-09-27T12:39:27;2.20;;;1.70;;
2055;SDS011;1033;52.560;13.374;2022-09-27T12:42:29;3.40;;;1.53;;
2055;SDS011;1033;52.560;13.374;2022-09-27T12:45:09;2.33;;;1.50;;
2055;SDS011;1033;52.560;13.374;2022-09-27T12:47:45;4.10;;;1.70;;
2055;SDS011;1033;52.560;13.374;2022-09-27T12:50:26;5.03;;;3.10;;
2055;SDS011;1033;52.560;13.374;2022-09-27T12:53:00;3.50;;;2.10;;
2055;SDS011;1033;52.560;13.374;2022-09-27T12:55:41;2.53;;;1.70;;
2055;SDS011;1033;52.560;13.374;2022-09-27T13:04:48;3.63;;;1.77;;
2055;SDS011;1033;52.560;13.374;2022-09-27T13:07:31;1.70;;;1.30;;
2055;SDS011;1033;52.560;13.374;2022-09-27T13:10:12;3.13;;;2.70;;
2055;SDS011;1033;52.560;13.374;2022-09-27T13:15:54;3.80;;;1.80;;
2055;SDS011;1033;52.560;13.374;2022-09-27T13:18:28;3.17;;;1.80;;
2055;SDS011;1033;52.560;13.374;2022-09-27T13:21:02;1.70;;;1.37;;
2055;SDS011;1033;52.560;13.374;2022-09-27T13:23:49;2.23;;;1.37;;
2055;SDS011;1033;52.560;13.374;2022-09-27T13:26:22;2.30;;;1.63;;
2055;SDS011;1033;52.560;13.374;2022-09-27T13:29:10;3.40;;;1.53;;
2055;SDS011;1033;52.560;13.374;2022-09-27T13:38:04;4.27;;;1.67;;
2055;SDS011;1033;52.560;13.374;2022-09-27T13:40:48;2.20;;;1.20;;
2055;SDS011;1033;52.560;13.374;2022-09-27T13:43:34;3.50;;;1.60;;
2055;SDS011;1033;52.560;13.374;2022-09-27T13:46:26;2.00;;;1.30;;
2055;SDS011;1033;52.560;13.374;2022-09-27T13:48:56;6.90;;;1.73;;
2055;SDS011;1033;52.560;13.374;2022-09-27T13:51:42;1.73;;;1.50;;
2055;SDS011;1033;52.560;13.374;2022-09-27T13:54:36;2.53;;;1.60;;
2055;SDS011;1033;52.560;13.374;2022-09-27T14:00:11;4.40;;;2.40;;
2055;SDS011;1033;52.560;13.374;2022-09-27T14:02:50;3.93;;;1.90;;
2055;SDS011;1033;52.560;13.374;2022-09-27T14:05:25;1.93;;;1.37;;
2055;SDS011;1033;52.560;13.374;2022-09-27T14:07:59;2.67;;;1.93;;
2055;SDS011;1033;52.560;13.374;2022-09-27T14:10:29;2.50;;;2.17;;
2055;SDS011;1033;52.560;13.374;2022-09-27T14:12:59;2.20;;;2.00;;
2055;SDS011;1033;52.560;13.374;2022-09-27T14:15:37;3.03;;;2.00;;
2055;SDS011;1033;52.560;13.374;2022-09-27T14:18:08;4.60;;;2.17;;
2055;SDS011;1033;52.560;13.374;2022-09-27T14:20:42;2.97;;;2.27;;
2055;SDS011;1033;52.560;13.374;2022-09-27T14:23:36;4.03;;;2.03;;
2055;SDS011;1033;52.560;13.374;2022-09-27T14:26:05;5.60;;;3.90;;
2055;SDS011;1033;52.560;13.374;2022-09-27T14:28:47;3.67;;;1.80;;
2055;SDS011;1033;52.560;13.374;2022-09-27T14:31:30;4.13;;;1.83;;
2055;SDS011;1033;52.560;13.374;2022-09-27T14:34:19;2.50;;;1.97;;
2055;SDS011;1033;52.560;13.374;2022-09-27T14:36:50;1.93;;;1.70;;
2055;SDS011;1033;52.560;13.374;2022-09-27T14:39:51;2.30;;;1.70;;
2055;SDS011;1033;52.560;13.374;2022-09-27T14:42:31;2.47;;;1.53;;
2055;SDS011;1033;52.560;13.374;2022-09-27T14:45:03;3.07;;;2.30;;
2055;SDS011;1033;52.560;13.374;2022-09-27T14:47:48;3.20;;;2.20;;
2055;SDS011;1033;52.560;13.374;2022-09-27T14:50:20;2.40;;;1.80;;
2055;SDS011;1033;52.560;13.374;2022-09-27T14:52:51;2.50;;;2.10;;
2055;SDS011;1033;52.560;13.374;2022-09-27T14:55:23;2.73;;;2.50;;
2055;SDS011;1033;52.560;13.374;2022-09-27T14:57:55;3.40;;;2.03;;
2055;SDS011;1033;52.560;13.374;2022-09-27T15:00:26;4.33;;;2.13;;
2055;SDS011;1033;52.560;13.374;2022-09-27T15:02:58;5.73;;;2.23;;
2055;SDS011;1033;52.560;13.374;2022-09-27T15:05:31;7.70;;;2.30;;
2055;SDS011;1033;52.560;13.374;2022-09-27T15:08:08;3.07;;;2.17;;
2055;SDS011;1033;52.560;13.374;2022-09-27T15:10:40;2.83;;;2.27;;
2055;SDS011;1033;52.560;13.374;2022-09-27T15:13:11;7.13;;;2.67;;
2055;SDS011;1033;52.560;13.374;2022-09-27T15:15:43;4.00;;;2.30;;
2055;SDS011;1033;52.560;13.374;2022-09-27T15:21:08;3.93;;;2.40;;
2055;SDS011;1033;52.560;13.374;2022-09-27T15:23:40;4.60;;;2.20;;
2055;SDS011;1033;52.560;13.374;2022-09-27T15:26:11;10.03;;;2.83;;
2055;SDS011;1033;52.560;13.374;2022-09-27T15:28:43;3.33;;;2.97;;
2055;SDS011;1033;52.560;13.374;2022-09-27T15:31:13;3.10;;;2.53;;
2055;SDS011;1033;52.560;13.374;2022-09-27T15:33:49;3.80;;;3.00;;
2055;SDS011;1033;52.560;13.374;2022-09-27T15:36:43;4.83;;;2.63;;
2055;SDS011;1033;52.560;13.374;2022-09-27T15:39:18;7.20;;;2.50;;
2055;SDS011;1033;52.560;13.374;2022-09-27T15:41:59;6.03;;;2.67;;
2055;SDS011;1033;52.560;13.374;2022-09-27T15:44:45;3.37;;;2.90;;
2055;SDS011;1033;52.560;13.374;2022-09-27T15:53:02;5.23;;;3.27;;
2055;SDS011;1033;52.560;13.374;2022-09-27T15:55:33;5.63;;;3.50;;
2055;SDS011;1033;52.560;13.374;2022-09-27T15:58:07;4.63;;;3.47;;
2055;SDS011;1033;52.560;13.374;2022-09-27T16:00:51;4.07;;;3.03;;
2055;SDS011;1033;52.560;13.374;2022-09-27T16:03:21;6.90;;;3.27;;
2055;SDS011;1033;52.560;13.374;2022-09-27T16:05:50;4.40;;;3.20;;
2055;SDS011;1033;52.560;13.374;2022-09-27T16:08:22;2.83;;;1.90;;
2055;SDS011;1033;52.560;13.374;2022-09-27T16:10:54;2.80;;;2.10;;
2055;SDS011;1033;52.560;13.374;2022-09-27T16:13:23;2.67;;;1.70;;
2055;SDS011;1033;52.560;13.374;2022-09-27T16:15:58;2.70;;;2.03;;
2055;SDS011;1033;52.560;13.374;2022-09-27T16:18:28;1.83;;;1.40;;
2055;SDS011;1033;52.560;13.374;2022-09-27T16:20:57;5.10;;;2.37;;
2055;SDS011;1033;52.560;13.374;2022-09-27T16:23:27;2.90;;;1.70;;
2055;SDS011;1033;52.560;13.374;2022-09-27T16:25:55;5.50;;;2.47;;
2055;SDS011;1033;52.560;13.374;2022-09-27T16:28:24;2.83;;;1.83;;
2055;SDS011;1033;52.560;13.374;2022-09-27T16:30:52;3.27;;;2.37;;
2055;SDS011;1033;52.560;13.374;2022-09-27T16:33:21;4.10;;;2.57;;
2055;SDS011;1033;52.560;13.374;2022-09-27T16:35:50;4.33;;;2.10;;
2055;SDS011;1033;52.560;13.374;2022-09-27T16:38:18;3.73;;;2.30;;